createdAt,value
2024-01-24T00:01:15.783Z,4.60
2024-01-24T00:03:46.687Z,5.00
2024-01-24T00:06:16.586Z,4.60
2024-01-24T00:08:49.467Z,5.60
2024-01-24T00:11:19.177Z,6.90
2024-01-24T00:13:51.203Z,5.60
2024-01-24T00:16:20.508Z,5.50
2024-01-24T00:18:51.296Z,4.30
2024-01-24T00:21:20.667Z,5.00
2024-01-24T00:23:51.286Z,4.80
2024-01-24T00:26:20.595Z,4.50
2024-01-24T00:28:51.514Z,4.60
2024-01-24T00:31:20.717Z,4.30
2024-01-24T00:33:53.978Z,4.50
2024-01-24T00:36:24.789Z,3.90
2024-01-24T00:38:55.373Z,5.00
2024-01-24T00:41:24.766Z,4.90
2024-01-24T00:43:55.414Z,5.70
2024-01-24T00:46:24.709Z,4.90
2024-01-24T00:48:55.907Z,4.00
2024-01-24T00:51:25.583Z,5.90
2024-01-24T00:53:56.117Z,6.50
2024-01-24T00:56:25.503Z,6.20
2024-01-24T00:58:56.143Z,6.40
2024-01-24T01:01:25.543Z,6.70
2024-01-24T01:03:56.567Z,5.50
2024-01-24T01:06:27.820Z,6.50
2024-01-24T01:09:01.515Z,6.40
2024-01-24T01:11:31.023Z,6.80
2024-01-24T01:14:01.633Z,6.60
2024-01-24T01:16:31.151Z,5.50
2024-01-24T01:19:02.252Z,6.50
2024-01-24T01:21:31.781Z,5.80
2024-01-24T01:24:02.450Z,6.70
2024-01-24T01:26:34.164Z,6.20
2024-01-24T01:29:05.221Z,5.90
2024-01-24T01:31:34.514Z,6.50
2024-01-24T01:34:05.743Z,5.20
2024-01-24T01:36:35.286Z,5.50
2024-01-24T01:39:05.895Z,4.70
2024-01-24T01:41:38.352Z,5.30
2024-01-24T01:44:09.206Z,4.00
2024-01-24T01:46:39.324Z,5.60
2024-01-24T01:49:10.023Z,4.80
2024-01-24T01:51:39.794Z,4.80
2024-01-24T01:54:10.608Z,5.90
2024-01-24T01:56:40.211Z,5.00
2024-01-24T01:59:10.737Z,5.00
2024-01-24T02:01:40.188Z,3.90
2024-01-24T02:04:10.944Z,4.40
2024-01-24T02:06:40.475Z,4.50
2024-01-24T02:11:41.799Z,5.00
2024-01-24T02:14:13.920Z,4.20
2024-01-24T02:16:43.212Z,4.80
2024-01-24T02:19:14.119Z,5.20
2024-01-24T02:21:43.557Z,4.40
2024-01-24T02:24:14.446Z,3.60
2024-01-24T02:26:44.517Z,4.60
2024-01-24T02:29:15.351Z,3.50
2024-01-24T02:31:44.666Z,4.00
2024-01-24T02:34:15.271Z,4.70
2024-01-24T02:36:45.198Z,4.50
2024-01-24T02:39:15.868Z,3.80
2024-01-24T02:41:46.053Z,4.20
2024-01-24T02:44:16.672Z,4.00
2024-01-24T02:46:46.278Z,4.00
2024-01-24T02:49:17.866Z,5.30
2024-01-24T02:51:47.467Z,3.90
2024-01-24T02:54:18.204Z,3.90
2024-01-24T02:56:47.687Z,4.20
2024-01-24T02:59:18.522Z,4.00
2024-01-24T03:01:48.344Z,4.20
2024-01-24T03:04:19.033Z,3.20
2024-01-24T03:06:48.617Z,3.00
2024-01-24T03:11:48.901Z,4.20
2024-01-24T03:14:19.433Z,3.40
2024-01-24T03:16:48.944Z,3.80
2024-01-24T03:19:20.160Z,3.80
2024-01-24T03:21:49.496Z,3.90
2024-01-24T03:24:20.252Z,4.00
2024-01-24T03:26:49.715Z,3.80
2024-01-24T03:29:21.041Z,4.40
2024-01-24T03:31:50.366Z,3.80
2024-01-24T03:34:21.180Z,3.50
2024-01-24T03:36:50.739Z,2.80
2024-01-24T03:39:21.356Z,3.70
2024-01-24T03:41:50.546Z,3.60
2024-01-24T03:44:21.334Z,3.70
2024-01-24T03:46:51.109Z,3.10
2024-01-24T03:49:23.082Z,2.90
2024-01-24T03:51:52.539Z,3.20
2024-01-24T03:54:24.029Z,3.10
2024-01-24T03:56:53.469Z,2.40
2024-01-24T03:59:24.333Z,2.90
2024-01-24T04:01:53.790Z,2.50
2024-01-24T04:04:25.124Z,2.90
2024-01-24T04:06:56.167Z,2.90
2024-01-24T04:09:26.985Z,3.10
2024-01-24T04:11:56.703Z,2.70
2024-01-24T04:16:56.697Z,3.30
2024-01-24T04:19:27.517Z,3.20
2024-01-24T04:21:57.318Z,2.70
2024-01-24T04:24:28.002Z,2.10
2024-01-24T04:26:58.709Z,2.50
2024-01-24T04:29:29.342Z,2.30
2024-01-24T04:31:58.742Z,3.60
2024-01-24T04:34:29.412Z,2.70
2024-01-24T04:36:58.921Z,2.00
2024-01-24T04:39:29.855Z,2.40
2024-01-24T04:42:05.687Z,2.50
2024-01-24T04:44:42.895Z,2.30
2024-01-24T04:47:15.061Z,2.70
2024-01-24T04:49:46.490Z,2.10
2024-01-24T04:52:16.109Z,2.60
2024-01-24T04:54:46.956Z,2.70
2024-01-24T04:57:16.351Z,2.50
2024-01-24T04:59:53.360Z,2.80
2024-01-24T05:02:27.323Z,2.60
2024-01-24T05:04:56.819Z,2.20
2024-01-24T05:07:27.447Z,4.00
2024-01-24T05:09:57.003Z,2.50
2024-01-24T05:12:27.819Z,3.50
2024-01-24T05:14:57.805Z,2.60
2024-01-24T05:17:28.557Z,3.10
2024-01-24T05:19:57.843Z,2.80
2024-01-24T05:22:28.978Z,1.80
2024-01-24T05:24:58.305Z,2.30
2024-01-24T05:27:29.021Z,2.60
2024-01-24T05:29:58.290Z,2.60
2024-01-24T05:32:29.160Z,2.80
2024-01-24T05:34:59.146Z,2.70
2024-01-24T05:37:30.149Z,2.10
2024-01-24T05:39:59.818Z,2.90
2024-01-24T05:45:00.467Z,4.50
2024-01-24T05:47:31.230Z,2.40
2024-01-24T05:50:00.665Z,2.50
2024-01-24T05:52:31.357Z,2.10
2024-01-24T05:55:01.251Z,2.40
2024-01-24T05:57:31.908Z,2.20
2024-01-24T06:00:01.346Z,2.10
2024-01-24T06:02:32.614Z,2.00
2024-01-24T06:05:02.995Z,2.50
2024-01-24T06:07:33.886Z,2.60
2024-01-24T06:10:03.460Z,2.80
2024-01-24T06:15:03.858Z,13.00
2024-01-24T06:17:35.551Z,12.50
2024-01-24T06:20:05.497Z,22.60
2024-01-24T06:22:36.956Z,21.70
2024-01-24T06:25:09.017Z,14.80
2024-01-24T06:27:40.660Z,17.10
2024-01-24T06:30:19.526Z,23.40
2024-01-24T06:32:54.246Z,15.00
2024-01-24T06:35:23.719Z,10.90
2024-01-24T06:37:54.500Z,12.80
2024-01-24T06:40:23.955Z,16.90
2024-01-24T06:45:24.572Z,9.70
2024-01-24T06:47:55.460Z,6.20
2024-01-24T06:50:25.724Z,5.20
2024-01-24T06:52:56.747Z,5.50
2024-01-24T06:55:26.123Z,5.00
2024-01-24T06:57:57.150Z,4.70
2024-01-24T07:00:28.563Z,4.60
2024-01-24T07:02:59.382Z,4.00
2024-01-24T07:05:30.363Z,5.60
2024-01-24T07:08:01.005Z,8.60
2024-01-24T07:10:30.407Z,9.50
2024-01-24T07:13:01.148Z,7.10
2024-01-24T07:15:30.783Z,6.00
2024-01-24T07:20:31.396Z,5.10
2024-01-24T07:23:03.129Z,5.20
2024-01-24T07:25:32.553Z,4.50
2024-01-24T07:28:03.679Z,5.80
2024-01-24T07:30:33.129Z,7.20
2024-01-24T07:33:05.531Z,5.60
2024-01-24T07:35:34.976Z,3.60
2024-01-24T07:38:05.497Z,3.70
2024-01-24T07:40:34.902Z,4.20
2024-01-24T07:43:05.739Z,3.60
2024-01-24T07:45:35.271Z,2.90
2024-01-24T07:48:07.302Z,3.50
2024-01-24T07:50:37.015Z,3.10
2024-01-24T07:53:07.753Z,2.50
2024-01-24T07:55:46.725Z,2.60
2024-01-24T07:58:26.557Z,3.30
2024-01-24T08:00:56.868Z,2.80
2024-01-24T08:03:27.806Z,2.90
2024-01-24T08:05:57.962Z,2.90
2024-01-24T08:08:28.830Z,2.60
2024-01-24T08:10:58.784Z,2.70
2024-01-24T08:13:29.389Z,2.60
2024-01-24T08:15:59.265Z,3.60
2024-01-24T08:18:30.436Z,3.60
2024-01-24T08:20:59.843Z,3.40
2024-01-24T08:23:38.348Z,2.60
2024-01-24T08:26:17.403Z,2.70
2024-01-24T08:28:46.795Z,2.70
2024-01-24T08:31:17.534Z,5.10
2024-01-24T08:33:50.323Z,7.20
2024-01-24T08:36:22.981Z,6.10
2024-01-24T08:38:52.497Z,3.80
2024-01-24T08:41:23.114Z,5.90
2024-01-24T08:43:53.826Z,4.10
2024-01-24T08:46:24.848Z,3.70
2024-01-24T08:48:54.192Z,3.10
2024-01-24T08:51:26.995Z,3.60
2024-01-24T08:53:56.492Z,3.50
2024-01-24T08:56:27.319Z,3.20
2024-01-24T08:58:56.880Z,3.90
2024-01-24T09:01:32.129Z,4.00
2024-01-24T09:04:04.252Z,5.60
2024-01-24T09:06:33.862Z,5.50
2024-01-24T09:09:05.831Z,5.50
2024-01-24T09:11:42.065Z,4.00
2024-01-24T09:14:21.075Z,3.70
2024-01-24T09:16:50.687Z,3.00
2024-01-24T09:19:23.416Z,2.30
2024-01-24T09:21:53.198Z,3.30
2024-01-24T09:24:24.575Z,2.70
2024-01-24T09:26:54.131Z,3.20
2024-01-24T09:29:24.820Z,3.60
2024-01-24T09:31:54.518Z,3.10
2024-01-24T09:34:28.594Z,3.60
2024-01-24T09:37:00.690Z,9.60
2024-01-24T09:39:30.498Z,7.80
2024-01-24T09:42:01.110Z,12.00
2024-01-24T09:44:32.157Z,13.00
2024-01-24T09:47:03.383Z,10.20
2024-01-24T09:49:33.625Z,14.00
2024-01-24T09:52:04.982Z,9.90
2024-01-24T09:54:36.326Z,19.10
2024-01-24T09:57:08.009Z,13.20
2024-01-24T09:59:37.350Z,6.40
2024-01-24T10:02:08.720Z,5.80
2024-01-24T10:04:39.300Z,7.90
2024-01-24T10:07:10.519Z,7.00
2024-01-24T10:09:39.851Z,6.50
2024-01-24T10:12:10.821Z,6.70
2024-01-24T10:14:42.534Z,4.40
2024-01-24T10:17:13.609Z,3.20
2024-01-24T10:19:43.334Z,3.40
2024-01-24T10:22:14.248Z,5.00
2024-01-24T10:24:43.674Z,5.10
2024-01-24T10:27:14.905Z,3.90
2024-01-24T10:29:45.362Z,5.60
2024-01-24T10:32:16.270Z,10.10
2024-01-24T10:34:46.327Z,12.70
2024-01-24T10:37:20.073Z,14.20
2024-01-24T10:39:49.799Z,21.00
2024-01-24T10:42:21.419Z,23.90
2024-01-24T10:44:51.884Z,17.60
2024-01-24T10:47:22.985Z,20.90
2024-01-24T10:49:53.557Z,14.30
2024-01-24T10:52:24.680Z,16.30
2024-01-24T10:54:54.144Z,12.30
2024-01-24T10:57:27.125Z,7.60
2024-01-24T10:59:57.233Z,6.20
2024-01-24T11:02:28.187Z,5.30
2024-01-24T11:04:58.300Z,6.10
2024-01-24T11:07:32.262Z,5.10
2024-01-24T11:10:15.113Z,4.20
2024-01-24T11:12:46.081Z,3.40
2024-01-24T11:15:15.448Z,2.60
2024-01-24T11:17:48.423Z,2.40
2024-01-24T11:20:21.781Z,2.50
2024-01-24T11:22:51.106Z,3.00
2024-01-24T11:25:38.421Z,3.10
2024-01-24T11:28:09.324Z,2.70
2024-01-24T11:30:40.125Z,2.00
2024-01-24T11:33:16.146Z,2.00
2024-01-24T11:35:48.326Z,1.70
2024-01-24T11:38:29.922Z,1.50
2024-01-24T11:41:04.470Z,1.30
2024-01-24T11:43:37.683Z,1.30
2024-01-24T11:46:11.427Z,1.70
2024-01-24T11:48:42.057Z,1.60
2024-01-24T11:51:14.619Z,2.00
2024-01-24T11:53:44.245Z,1.50
2024-01-24T11:56:17.971Z,2.00
2024-01-24T11:58:47.559Z,1.70
2024-01-24T12:01:18.917Z,1.70
2024-01-24T12:03:49.620Z,1.80
2024-01-24T12:06:22.946Z,1.90
2024-01-24T12:08:53.902Z,2.60
2024-01-24T12:11:26.035Z,2.60
2024-01-24T12:13:55.348Z,2.20
2024-01-24T12:18:57.095Z,2.50
2024-01-24T12:21:28.799Z,3.40
2024-01-24T12:23:58.693Z,2.90
2024-01-24T12:26:32.182Z,2.10
2024-01-24T12:29:02.101Z,2.00
2024-01-24T12:34:02.769Z,2.10
2024-01-24T12:39:02.785Z,2.40
2024-01-24T12:41:33.812Z,1.70
2024-01-24T12:44:03.311Z,2.40
2024-01-24T12:49:03.600Z,3.20
2024-01-24T12:51:34.940Z,2.50
2024-01-24T12:54:06.241Z,2.10
2024-01-24T12:56:36.880Z,2.10
2024-01-24T12:59:06.494Z,1.60
2024-01-24T13:01:37.423Z,1.80
2024-01-24T13:04:06.990Z,3.10
2024-01-24T13:06:38.214Z,3.70
2024-01-24T13:09:07.889Z,2.50
2024-01-24T13:14:08.424Z,6.60
2024-01-24T13:19:08.409Z,15.80
2024-01-24T13:21:42.725Z,7.40
2024-01-24T13:24:15.059Z,5.00
2024-01-24T13:26:45.271Z,4.50
2024-01-24T13:29:16.522Z,5.20
2024-01-24T13:31:46.682Z,5.70
2024-01-24T13:34:18.672Z,4.00
2024-01-24T13:36:48.294Z,5.20
2024-01-24T13:39:19.246Z,6.90
2024-01-24T13:41:48.438Z,6.60
2024-01-24T13:44:19.685Z,5.90
2024-01-24T13:46:49.281Z,4.80
2024-01-24T13:49:21.838Z,6.40
2024-01-24T13:51:52.095Z,5.20
2024-01-24T13:54:23.820Z,5.70
2024-01-24T13:56:53.655Z,4.40
2024-01-24T13:59:24.405Z,4.10
2024-01-24T14:01:57.063Z,5.20
2024-01-24T14:04:31.564Z,5.60
2024-01-24T14:07:01.069Z,10.30
2024-01-24T14:12:01.333Z,11.00
2024-01-24T14:14:32.590Z,8.80
2024-01-24T14:17:02.619Z,7.00
2024-01-24T14:19:34.020Z,5.60
2024-01-24T14:22:03.798Z,7.80
2024-01-24T14:24:34.526Z,10.30
2024-01-24T14:27:03.998Z,9.80
2024-01-24T14:32:04.417Z,9.80
2024-01-24T14:34:38.560Z,7.70
2024-01-24T14:37:11.024Z,6.80
2024-01-24T14:39:42.293Z,5.60
2024-01-24T14:42:11.781Z,6.60
2024-01-24T14:47:12.122Z,6.40
2024-01-24T14:49:42.666Z,5.50
2024-01-24T14:52:12.374Z,4.60
2024-01-24T14:54:43.325Z,5.20
2024-01-24T14:57:13.300Z,4.30
2024-01-24T14:59:43.940Z,5.70
2024-01-24T15:02:13.541Z,8.40
2024-01-24T15:04:44.098Z,7.50
2024-01-24T15:07:13.849Z,4.90
2024-01-24T15:09:44.375Z,3.40
2024-01-24T15:12:14.330Z,5.30
2024-01-24T15:14:44.857Z,4.60
2024-01-24T15:17:14.261Z,4.00
2024-01-24T15:19:48.409Z,4.00
2024-01-24T15:22:23.242Z,4.00
2024-01-24T15:24:54.706Z,2.90
2024-01-24T15:27:26.431Z,3.20
2024-01-24T15:29:56.658Z,3.40
2024-01-24T15:32:27.970Z,2.90
2024-01-24T15:34:57.649Z,3.60
2024-01-24T15:37:29.042Z,3.70
2024-01-24T15:39:58.998Z,3.60
2024-01-24T15:42:34.810Z,2.40
2024-01-24T15:45:06.252Z,2.10
2024-01-24T15:47:36.259Z,2.90
2024-01-24T15:50:07.208Z,3.50
2024-01-24T15:52:36.877Z,3.10
2024-01-24T15:57:37.703Z,3.70
2024-01-24T16:00:12.307Z,3.40
2024-01-24T16:02:44.404Z,3.70
2024-01-24T16:05:35.568Z,4.10
2024-01-24T16:08:06.932Z,3.90
2024-01-24T16:10:36.632Z,2.70
2024-01-24T16:13:07.423Z,4.30
2024-01-24T16:15:37.300Z,3.80
2024-01-24T16:18:08.436Z,3.40
2024-01-24T16:20:37.819Z,3.10
2024-01-24T16:23:08.444Z,4.10
2024-01-24T16:25:37.946Z,3.70
2024-01-24T16:28:11.834Z,3.40
2024-01-24T16:30:44.739Z,3.10
2024-01-24T16:33:14.395Z,3.30
2024-01-24T16:35:45.112Z,2.90
2024-01-24T16:38:15.095Z,3.40
2024-01-24T16:40:46.446Z,2.80
2024-01-24T16:43:15.803Z,3.40
2024-01-24T16:45:46.577Z,4.50
2024-01-24T16:48:15.953Z,2.50
2024-01-24T16:53:16.533Z,2.20
2024-01-24T16:55:47.268Z,2.00
2024-01-24T16:58:16.772Z,3.10
2024-01-24T17:03:17.155Z,5.30
2024-01-24T17:05:47.871Z,4.90
2024-01-24T17:08:17.361Z,6.30
2024-01-24T17:13:18.622Z,6.20
2024-01-24T17:15:49.375Z,6.70
2024-01-24T17:18:20.234Z,4.60
2024-01-24T17:20:50.910Z,4.90
2024-01-24T17:23:20.512Z,5.40
2024-01-24T17:28:20.860Z,3.40
2024-01-24T17:30:54.056Z,4.60
2024-01-24T17:33:23.668Z,6.30
2024-01-24T17:35:54.828Z,6.00
2024-01-24T17:38:24.618Z,9.10
2024-01-24T17:40:55.242Z,7.60
2024-01-24T17:43:24.964Z,5.90
2024-01-24T17:45:55.676Z,5.90
2024-01-24T17:48:25.260Z,5.90
2024-01-24T17:50:56.425Z,5.20
2024-01-24T17:53:25.828Z,4.60
2024-01-24T17:55:56.459Z,5.30
2024-01-24T17:58:25.772Z,4.70
2024-01-24T18:00:57.167Z,4.40
2024-01-24T18:03:26.868Z,4.50
2024-01-24T18:05:58.179Z,4.20
2024-01-24T18:08:27.476Z,6.30
2024-01-24T18:10:58.821Z,6.10
2024-01-24T18:13:29.274Z,23.00
2024-01-24T18:16:00.682Z,14.10
2024-01-24T18:18:30.334Z,20.70
2024-01-24T18:23:30.441Z,18.10
2024-01-24T18:28:30.985Z,13.20
2024-01-24T18:31:01.725Z,10.10
2024-01-24T18:33:31.595Z,24.40
2024-01-24T18:36:02.281Z,21.90
2024-01-24T18:38:31.657Z,13.80
2024-01-24T18:41:02.698Z,12.30
2024-01-24T18:43:32.202Z,13.10
2024-01-24T18:46:02.747Z,17.60
2024-01-24T18:48:33.229Z,6.50
2024-01-24T18:51:04.451Z,7.60
2024-01-24T18:53:34.829Z,5.90
2024-01-24T18:56:07.027Z,5.50
2024-01-24T18:58:37.684Z,7.70
2024-01-24T19:01:08.656Z,5.30
2024-01-24T19:03:38.958Z,5.10
2024-01-24T19:06:09.859Z,6.10
2024-01-24T19:08:39.631Z,5.80
2024-01-24T19:13:40.157Z,5.30
2024-01-24T19:16:11.813Z,5.10
2024-01-24T19:18:41.932Z,4.70
2024-01-24T19:21:12.910Z,5.30
2024-01-24T19:23:42.196Z,4.80
2024-01-24T19:26:12.732Z,5.80
2024-01-24T19:28:42.645Z,5.00
2024-01-24T19:31:13.795Z,5.80
2024-01-24T19:33:43.324Z,5.10
2024-01-24T19:36:15.582Z,5.30
2024-01-24T19:38:46.921Z,6.30
2024-01-24T19:41:17.640Z,5.80
2024-01-24T19:43:47.042Z,7.60
2024-01-24T19:46:18.492Z,6.00
2024-01-24T19:48:48.484Z,6.90
2024-01-24T19:51:19.904Z,5.60
2024-01-24T19:53:54.585Z,5.80
2024-01-24T19:56:25.648Z,6.30
2024-01-24T19:58:55.031Z,6.10
2024-01-24T20:03:55.296Z,9.20
2024-01-24T20:08:55.704Z,4.60
2024-01-24T20:11:26.856Z,4.30
2024-01-24T20:13:56.250Z,5.00
2024-01-24T20:16:26.994Z,5.90
2024-01-24T20:18:57.471Z,5.80
2024-01-24T20:21:29.270Z,4.90
2024-01-24T20:23:58.981Z,4.70
2024-01-24T20:26:30.229Z,11.50
2024-01-24T20:28:59.742Z,9.30
2024-01-24T20:31:30.484Z,9.30
2024-01-24T20:34:00.575Z,9.80
2024-01-24T20:36:31.471Z,10.60
2024-01-24T20:39:01.031Z,17.80
2024-01-24T20:41:32.344Z,11.80
2024-01-24T20:44:01.909Z,8.10
2024-01-24T20:46:33.258Z,6.70
2024-01-24T20:49:02.879Z,6.20
2024-01-24T20:51:33.664Z,6.10
2024-01-24T20:54:05.015Z,4.30
2024-01-24T20:56:35.945Z,4.30
2024-01-24T20:59:05.352Z,2.80
2024-01-24T21:01:36.061Z,2.30
2024-01-24T21:04:05.910Z,2.70
2024-01-24T21:06:37.184Z,2.90
2024-01-24T21:09:06.538Z,2.40
2024-01-24T21:11:37.375Z,2.80
2024-01-24T21:14:06.776Z,2.60
2024-01-24T21:16:37.311Z,3.30
2024-01-24T21:19:07.038Z,2.60
2024-01-24T21:21:37.850Z,2.20
2024-01-24T21:24:08.170Z,2.20
2024-01-24T21:26:38.903Z,1.70
2024-01-24T21:29:08.311Z,1.60
2024-01-24T21:31:39.351Z,1.90
2024-01-24T21:34:08.830Z,2.60
2024-01-24T21:36:42.643Z,2.10
2024-01-24T21:39:18.725Z,2.50
2024-01-24T21:41:48.036Z,2.50
2024-01-24T21:44:18.763Z,2.60
2024-01-24T21:46:48.261Z,2.30
2024-01-24T21:49:19.152Z,2.20
2024-01-24T21:51:48.634Z,1.70
2024-01-24T21:54:20.766Z,2.20
2024-01-24T21:56:50.774Z,2.30
2024-01-24T21:59:21.618Z,2.40
2024-01-24T22:01:51.512Z,2.50
2024-01-24T22:04:22.433Z,2.00
2024-01-24T22:06:52.063Z,1.90
2024-01-24T22:11:52.221Z,2.40
2024-01-24T22:16:53.695Z,2.10
2024-01-24T22:19:24.535Z,2.60
2024-01-24T22:21:54.649Z,2.90
2024-01-24T22:24:25.993Z,3.80
2024-01-24T22:26:55.381Z,3.00
2024-01-24T22:29:25.920Z,2.40
2024-01-24T22:31:55.317Z,2.90
2024-01-24T22:34:26.105Z,2.30
2024-01-24T22:36:56.048Z,2.60
2024-01-24T22:39:27.108Z,2.80
2024-01-24T22:41:56.502Z,2.60
2024-01-24T22:44:27.445Z,2.10
2024-01-24T22:46:56.844Z,2.70
2024-01-24T22:49:27.695Z,2.60
2024-01-24T22:51:57.133Z,2.50
2024-01-24T22:54:27.847Z,2.50
2024-01-24T22:56:57.424Z,3.20
2024-01-24T22:59:28.353Z,2.40
2024-01-24T23:01:57.939Z,2.30
2024-01-24T23:04:28.746Z,2.80
2024-01-24T23:06:58.747Z,2.40
2024-01-24T23:09:29.623Z,3.00
2024-01-24T23:11:58.961Z,2.80
2024-01-24T23:14:29.582Z,2.90
2024-01-24T23:16:58.892Z,1.90
2024-01-24T23:19:29.664Z,2.30
2024-01-24T23:21:59.186Z,1.70
2024-01-24T23:24:29.961Z,1.80
2024-01-24T23:26:59.353Z,2.10
2024-01-24T23:29:30.263Z,1.70
2024-01-24T23:31:59.598Z,1.90
2024-01-24T23:34:30.327Z,2.60
2024-01-24T23:37:00.094Z,2.00
2024-01-24T23:39:30.889Z,1.50
2024-01-24T23:42:00.228Z,2.00
2024-01-24T23:44:31.013Z,2.20
2024-01-24T23:47:00.327Z,2.00
2024-01-24T23:49:31.531Z,2.00
2024-01-24T23:52:00.980Z,1.90
2024-01-24T23:57:01.416Z,1.80
2024-01-24T23:59:32.257Z,1.80
